createdAt,value
2019-02-16T00:01:36.743Z,5.50
2019-02-16T00:04:05.603Z,6.40
2019-02-16T00:06:34.449Z,5.20
2019-02-16T00:09:03.674Z,6.00
2019-02-16T00:11:32.524Z,6.93
2019-02-16T00:14:01.386Z,5.30
2019-02-16T00:16:30.217Z,7.60
2019-02-16T00:18:59.144Z,5.00
2019-02-16T00:21:27.989Z,5.00
2019-02-16T00:23:56.863Z,5.63
2019-02-16T00:26:25.712Z,4.67
2019-02-16T00:28:54.586Z,5.50
2019-02-16T00:31:23.431Z,4.77
2019-02-16T00:33:52.304Z,7.07
2019-02-16T00:36:21.201Z,5.13
2019-02-16T00:38:50.086Z,7.57
2019-02-16T00:41:19.011Z,5.07
2019-02-16T00:43:48.091Z,4.13
2019-02-16T00:46:17.055Z,5.57
2019-02-16T00:48:45.920Z,4.13
2019-02-16T00:51:14.770Z,5.47
2019-02-16T00:53:43.623Z,6.10
2019-02-16T00:56:12.543Z,5.70
2019-02-16T00:58:41.409Z,4.87
2019-02-16T01:01:10.275Z,5.10
2019-02-16T01:03:39.194Z,3.90
2019-02-16T01:06:08.017Z,4.27
2019-02-16T01:08:36.894Z,5.03
2019-02-16T01:11:05.718Z,4.17
2019-02-16T01:13:34.670Z,6.13
2019-02-16T01:16:03.612Z,5.23
2019-02-16T01:18:32.471Z,6.33
2019-02-16T01:21:01.357Z,4.93
2019-02-16T01:23:30.231Z,5.17
2019-02-16T01:25:59.185Z,5.17
2019-02-16T01:28:28.025Z,4.87
2019-02-16T01:30:56.897Z,5.67
2019-02-16T01:33:25.747Z,5.13
2019-02-16T01:35:54.652Z,4.97
2019-02-16T01:38:23.493Z,6.03
2019-02-16T01:40:52.435Z,6.10
2019-02-16T01:43:21.249Z,5.17
2019-02-16T01:45:50.195Z,7.77
2019-02-16T01:48:19.020Z,4.80
2019-02-16T01:50:48.082Z,5.10
2019-02-16T01:53:17.002Z,5.60
2019-02-16T01:55:47.482Z,6.27
2019-02-16T01:58:16.520Z,6.00
2019-02-16T02:00:45.491Z,5.87
2019-02-16T02:03:14.327Z,5.50
2019-02-16T02:05:43.190Z,5.10
2019-02-16T02:08:12.073Z,5.23
2019-02-16T02:10:40.935Z,6.17
2019-02-16T02:13:09.813Z,5.70
2019-02-16T02:15:38.666Z,6.83
2019-02-16T02:18:07.530Z,6.27
2019-02-16T02:20:36.391Z,6.63
2019-02-16T02:23:05.225Z,6.17
2019-02-16T02:25:34.107Z,5.97
2019-02-16T02:28:02.970Z,7.40
2019-02-16T02:30:31.841Z,6.67
2019-02-16T02:33:00.698Z,5.97
2019-02-16T02:35:29.563Z,7.47
2019-02-16T02:37:58.454Z,5.57
2019-02-16T02:40:27.310Z,6.73
2019-02-16T02:42:56.128Z,5.43
2019-02-16T02:45:25.017Z,5.93
2019-02-16T02:47:53.905Z,6.87
2019-02-16T02:50:22.755Z,6.37
2019-02-16T02:52:51.646Z,5.57
2019-02-16T02:55:20.530Z,7.73
2019-02-16T02:57:49.380Z,7.90
2019-02-16T03:00:18.264Z,10.00
2019-02-16T03:02:47.118Z,7.23
2019-02-16T03:05:15.991Z,6.30
2019-02-16T03:07:44.813Z,4.97
2019-02-16T03:10:13.740Z,5.50
2019-02-16T03:12:42.542Z,5.93
2019-02-16T03:15:11.380Z,5.27
2019-02-16T03:17:40.289Z,5.77
2019-02-16T03:20:09.123Z,5.47
2019-02-16T03:22:56.080Z,6.67
2019-02-16T03:25:24.919Z,5.70
2019-02-16T03:28:00.995Z,7.07
2019-02-16T03:30:50.688Z,8.17
2019-02-16T03:33:40.274Z,7.33
2019-02-16T03:36:17.254Z,6.73
2019-02-16T03:38:57.676Z,5.70
2019-02-16T03:41:26.529Z,5.53
2019-02-16T03:43:55.462Z,6.47
2019-02-16T03:46:24.323Z,7.67
2019-02-16T03:48:53.251Z,5.40
2019-02-16T03:51:22.145Z,7.87
2019-02-16T03:53:51.021Z,7.70
2019-02-16T03:56:19.938Z,7.90
2019-02-16T03:58:48.778Z,6.47
2019-02-16T04:01:17.661Z,7.07
2019-02-16T04:03:46.615Z,5.73
2019-02-16T04:06:15.475Z,7.23
2019-02-16T04:08:44.467Z,6.62
2019-02-16T04:11:13.456Z,5.83
2019-02-16T04:13:42.446Z,8.13
2019-02-16T04:16:11.531Z,7.37
2019-02-16T04:18:40.632Z,6.00
2019-02-16T04:21:09.522Z,6.43
2019-02-16T04:23:38.402Z,8.03
2019-02-16T04:26:09.151Z,5.90
2019-02-16T04:28:40.529Z,6.33
2019-02-16T04:31:09.502Z,6.17
2019-02-16T04:33:38.549Z,7.60
2019-02-16T04:36:07.384Z,8.00
2019-02-16T04:38:36.375Z,10.17
2019-02-16T04:41:05.355Z,9.17
2019-02-16T04:43:36.019Z,5.70
2019-02-16T04:46:04.985Z,7.00
2019-02-16T04:48:33.986Z,6.80
2019-02-16T04:51:02.915Z,8.40
2019-02-16T04:53:31.798Z,18.73
2019-02-16T04:56:00.666Z,12.77
2019-02-16T04:58:29.626Z,9.70
2019-02-16T05:00:58.509Z,6.93
2019-02-16T05:03:27.530Z,8.03
2019-02-16T05:05:56.388Z,7.70
2019-02-16T05:08:25.316Z,7.87
2019-02-16T05:10:54.206Z,8.13
2019-02-16T05:13:23.102Z,8.40
2019-02-16T05:15:52.038Z,6.87
2019-02-16T05:18:20.968Z,6.57
2019-02-16T05:20:49.923Z,9.37
2019-02-16T05:23:18.840Z,9.33
2019-02-16T05:25:47.716Z,8.80
2019-02-16T05:28:16.750Z,7.37
2019-02-16T05:30:45.614Z,7.33
2019-02-16T05:33:14.568Z,6.67
2019-02-16T05:35:43.603Z,7.63
2019-02-16T05:38:12.617Z,6.63
2019-02-16T05:40:41.570Z,7.80
2019-02-16T05:43:10.574Z,7.00
2019-02-16T05:45:39.487Z,9.33
2019-02-16T05:48:08.429Z,8.83
2019-02-16T05:50:37.311Z,10.80
2019-02-16T05:53:06.259Z,8.63
2019-02-16T05:55:35.158Z,8.60
2019-02-16T05:58:04.044Z,9.47
2019-02-16T06:00:32.904Z,8.90
2019-02-16T06:03:01.819Z,8.87
2019-02-16T06:05:30.675Z,8.33
2019-02-16T06:07:59.744Z,8.70
2019-02-16T06:10:28.793Z,7.83
2019-02-16T06:12:57.735Z,10.87
2019-02-16T06:15:26.872Z,9.67
2019-02-16T06:17:55.733Z,8.57
2019-02-16T06:20:24.733Z,11.30
2019-02-16T06:23:03.496Z,8.47
2019-02-16T06:25:24.369Z,10.47
2019-02-16T06:27:53.288Z,17.10
2019-02-16T06:30:22.296Z,12.27
2019-02-16T06:32:51.246Z,9.23
2019-02-16T06:35:30.658Z,9.40
2019-02-16T06:37:59.604Z,10.43
2019-02-16T06:40:28.468Z,10.03
2019-02-16T06:42:57.552Z,9.03
2019-02-16T06:45:26.430Z,10.60
2019-02-16T06:47:55.437Z,9.20
2019-02-16T06:50:24.449Z,10.50
2019-02-16T06:52:53.397Z,51.83
2019-02-16T06:55:24.182Z,35.27
2019-02-16T06:57:54.865Z,31.90
2019-02-16T07:00:26.633Z,18.83
2019-02-16T07:02:55.568Z,13.17
2019-02-16T07:05:24.614Z,14.70
2019-02-16T07:07:53.508Z,10.37
2019-02-16T07:10:22.382Z,10.37
2019-02-16T07:12:51.345Z,12.17
2019-02-16T07:15:20.355Z,13.10
2019-02-16T07:17:52.884Z,12.47
2019-02-16T07:20:23.679Z,11.27
2019-02-16T07:22:52.950Z,13.73
2019-02-16T07:25:21.929Z,10.60
2019-02-16T07:27:50.917Z,9.43
2019-02-16T07:30:19.998Z,8.90
2019-02-16T07:32:48.897Z,8.70
2019-02-16T07:35:17.890Z,10.87
2019-02-16T07:37:46.904Z,9.50
2019-02-16T07:40:15.852Z,7.13
2019-02-16T07:43:09.644Z,12.00
2019-02-16T07:45:55.754Z,11.30
2019-02-16T07:48:43.682Z,9.90
2019-02-16T07:51:21.076Z,11.20
2019-02-16T07:54:06.177Z,11.73
2019-02-16T07:56:41.126Z,12.73
2019-02-16T07:59:29.041Z,11.83
2019-02-16T08:02:16.978Z,14.47
2019-02-16T08:05:03.555Z,16.23
2019-02-16T08:07:50.143Z,15.93
2019-02-16T08:10:36.786Z,20.07
2019-02-16T08:13:30.975Z,12.07
2019-02-16T08:16:11.216Z,12.13
2019-02-16T08:18:58.159Z,8.53
2019-02-16T08:21:46.253Z,10.37
2019-02-16T08:24:38.684Z,8.40
2019-02-16T08:27:42.006Z,9.00
2019-02-16T08:30:32.511Z,6.13
2019-02-16T08:33:26.572Z,6.70
2019-02-16T08:36:20.546Z,5.30
2019-02-16T08:39:11.337Z,6.10
2019-02-16T08:42:14.458Z,5.47
2019-02-16T08:45:02.354Z,7.07
2019-02-16T08:47:50.312Z,7.03
2019-02-16T08:50:41.301Z,7.10
2019-02-16T08:53:16.057Z,7.77
2019-02-16T08:56:02.944Z,5.83
2019-02-16T08:58:50.875Z,5.23
2019-02-16T09:01:45.178Z,6.97
2019-02-16T09:04:39.043Z,5.40
2019-02-16T09:07:28.913Z,6.30
2019-02-16T09:10:25.886Z,6.20
2019-02-16T09:12:59.616Z,6.80
2019-02-16T09:15:59.795Z,9.17
2019-02-16T09:18:57.453Z,6.63
2019-02-16T09:21:32.737Z,8.23
2019-02-16T09:24:29.647Z,6.80
2019-02-16T09:27:35.768Z,6.33
2019-02-16T09:30:23.058Z,5.67
2019-02-16T09:33:20.300Z,7.00
2019-02-16T09:36:11.049Z,7.60
2019-02-16T09:39:14.310Z,8.13
2019-02-16T09:41:54.957Z,8.20
2019-02-16T09:44:43.666Z,6.30
2019-02-16T09:47:26.574Z,8.57
2019-02-16T09:50:17.378Z,7.97
2019-02-16T09:53:10.247Z,8.57
2019-02-16T09:55:56.892Z,7.80
2019-02-16T09:58:39.478Z,7.57
2019-02-16T10:01:16.868Z,7.73
2019-02-16T10:04:02.862Z,6.87
2019-02-16T10:06:49.395Z,8.17
2019-02-16T10:09:37.280Z,8.40
2019-02-16T10:12:37.870Z,8.80
2019-02-16T10:15:38.590Z,7.13
2019-02-16T10:18:31.260Z,7.20
2019-02-16T10:21:22.470Z,7.63
2019-02-16T10:24:18.234Z,7.73
2019-02-16T10:27:09.316Z,8.77
2019-02-16T10:30:03.372Z,8.37
2019-02-16T10:32:50.234Z,9.50
2019-02-16T10:35:47.643Z,14.20
2019-02-16T10:38:35.530Z,8.80
2019-02-16T10:41:32.676Z,8.40
2019-02-16T10:44:39.193Z,8.80
2019-02-16T10:47:27.133Z,8.07
2019-02-16T10:50:18.006Z,9.13
2019-02-16T10:52:58.893Z,8.93
2019-02-16T10:55:45.806Z,8.20
2019-02-16T10:58:32.678Z,8.27
2019-02-16T11:01:19.611Z,8.83
2019-02-16T11:03:56.411Z,8.27
2019-02-16T11:06:46.366Z,7.33
2019-02-16T11:09:34.411Z,7.77
2019-02-16T11:12:16.146Z,7.47
2019-02-16T11:15:09.962Z,8.43
2019-02-16T11:18:04.687Z,7.67
2019-02-16T11:20:45.931Z,8.47
2019-02-16T11:23:32.868Z,9.80
2019-02-16T11:26:23.791Z,7.87
2019-02-16T11:29:01.206Z,9.10
2019-02-16T11:31:43.353Z,8.70
2019-02-16T11:34:30.231Z,8.53
2019-02-16T11:37:21.170Z,10.67
2019-02-16T11:39:57.164Z,9.70
2019-02-16T11:42:37.488Z,8.57
2019-02-16T11:45:22.867Z,8.80
2019-02-16T11:48:06.936Z,8.63
2019-02-16T11:51:01.358Z,8.80
2019-02-16T11:53:38.745Z,9.07
2019-02-16T11:56:41.964Z,9.60
2019-02-16T11:59:35.920Z,8.97
2019-02-16T12:02:40.041Z,8.77
2019-02-16T12:05:18.496Z,9.77
2019-02-16T12:08:18.842Z,11.07
2019-02-16T12:11:10.437Z,8.77
2019-02-16T12:14:09.288Z,10.90
2019-02-16T12:16:57.292Z,9.27
2019-02-16T12:19:46.894Z,8.50
2019-02-16T12:22:41.214Z,9.17
2019-02-16T12:25:20.646Z,9.93
2019-02-16T12:28:00.808Z,11.57
2019-02-16T12:30:47.099Z,9.57
2019-02-16T12:33:38.216Z,9.80
2019-02-16T12:36:32.425Z,9.77
2019-02-16T12:39:26.494Z,9.73
2019-02-16T12:42:22.173Z,8.63
2019-02-16T12:45:19.053Z,9.23
2019-02-16T12:48:17.725Z,11.13
2019-02-16T12:51:05.716Z,9.57
2019-02-16T12:53:52.368Z,9.63
2019-02-16T12:56:27.348Z,9.73
2019-02-16T12:59:05.735Z,10.73
2019-02-16T13:01:45.514Z,10.63
2019-02-16T13:04:34.279Z,9.10
2019-02-16T13:07:31.471Z,10.93
2019-02-16T13:10:09.897Z,9.53
2019-02-16T13:12:48.148Z,10.80
2019-02-16T13:15:34.696Z,10.33
2019-02-16T13:18:31.823Z,11.17
2019-02-16T13:21:10.781Z,12.23
2019-02-16T13:24:07.955Z,11.30
2019-02-16T13:27:05.333Z,10.90
2019-02-16T13:29:49.252Z,9.20
2019-02-16T13:32:28.439Z,8.93
2019-02-16T13:35:25.624Z,10.43
2019-02-16T13:38:18.248Z,11.30
2019-02-16T13:41:06.212Z,10.83
2019-02-16T13:43:44.325Z,10.53
2019-02-16T13:46:31.312Z,10.10
2019-02-16T13:49:08.587Z,11.93
2019-02-16T13:51:52.456Z,12.60
2019-02-16T13:54:27.612Z,9.67
2019-02-16T13:57:24.732Z,11.30
2019-02-16T14:00:11.943Z,11.07
2019-02-16T14:02:51.191Z,10.53
2019-02-16T14:05:28.186Z,11.90
2019-02-16T14:08:08.107Z,11.77
2019-02-16T14:10:47.504Z,12.07
2019-02-16T14:13:44.806Z,11.53
2019-02-16T14:16:38.789Z,13.13
2019-02-16T14:19:07.698Z,10.67
2019-02-16T14:21:36.773Z,13.57
2019-02-16T14:24:05.948Z,12.00
2019-02-16T14:26:34.926Z,9.97
2019-02-16T14:29:03.812Z,11.93
2019-02-16T14:31:32.765Z,10.23
2019-02-16T14:34:01.817Z,11.00
2019-02-16T14:36:30.814Z,12.27
2019-02-16T14:39:30.925Z,9.93
2019-02-16T14:41:59.862Z,14.93
2019-02-16T14:44:28.953Z,12.67
2019-02-16T14:46:57.975Z,8.53
2019-02-16T14:49:27.025Z,10.77
2019-02-16T14:51:55.996Z,10.50
2019-02-16T14:54:24.947Z,9.90
2019-02-16T14:56:54.190Z,11.27
2019-02-16T14:59:23.056Z,11.63
2019-02-16T15:01:51.988Z,11.27
2019-02-16T15:04:21.102Z,14.53
2019-02-16T15:06:50.126Z,10.97
2019-02-16T15:09:18.950Z,14.47
2019-02-16T15:11:47.921Z,13.17
2019-02-16T15:14:16.932Z,12.40
2019-02-16T15:16:45.858Z,14.40
2019-02-16T15:19:14.954Z,17.70
2019-02-16T15:21:43.933Z,14.50
2019-02-16T15:24:13.094Z,12.70
2019-02-16T15:26:41.959Z,12.43
2019-02-16T15:29:10.902Z,11.77
2019-02-16T15:31:39.849Z,13.87
2019-02-16T15:34:08.759Z,12.60
2019-02-16T15:36:37.667Z,13.87
2019-02-16T15:39:07.242Z,14.23
2019-02-16T15:41:36.157Z,11.27
2019-02-16T15:44:05.234Z,12.40
2019-02-16T15:46:34.241Z,13.27
2019-02-16T15:49:03.428Z,14.87
2019-02-16T15:51:32.307Z,15.53
2019-02-16T15:54:01.264Z,12.57
2019-02-16T15:56:30.207Z,11.67
2019-02-16T15:58:59.114Z,12.80
2019-02-16T16:01:28.019Z,14.73
2019-02-16T16:03:56.969Z,13.90
2019-02-16T16:06:25.985Z,14.77
2019-02-16T16:09:13.896Z,12.03
2019-02-16T16:11:59.590Z,16.63
2019-02-16T16:14:40.587Z,16.37
2019-02-16T16:17:26.277Z,19.83
2019-02-16T16:20:08.227Z,17.93
2019-02-16T16:22:44.061Z,18.03
2019-02-16T16:25:21.370Z,20.37
2019-02-16T16:28:06.449Z,20.93
2019-02-16T16:30:43.131Z,17.50
2019-02-16T16:33:34.968Z,16.07
2019-02-16T16:36:26.040Z,14.33
2019-02-16T16:39:12.946Z,15.43
2019-02-16T16:41:55.767Z,15.83
2019-02-16T16:44:46.643Z,18.17
2019-02-16T16:47:27.843Z,16.10
2019-02-16T16:50:18.783Z,16.73
2019-02-16T16:53:10.418Z,15.93
2019-02-16T16:55:47.228Z,16.10
2019-02-16T16:58:35.307Z,15.23
2019-02-16T17:01:22.429Z,13.83
2019-02-16T17:04:03.124Z,18.57
2019-02-16T17:07:09.379Z,17.17
2019-02-16T17:10:15.498Z,20.07
2019-02-16T17:13:01.921Z,41.57
2019-02-16T17:15:40.320Z,33.77
2019-02-16T17:18:34.326Z,30.70
2019-02-16T17:21:20.905Z,31.17
2019-02-16T17:24:11.878Z,18.80
2019-02-16T17:27:03.025Z,16.37
2019-02-16T17:29:47.685Z,16.40
2019-02-16T17:32:47.755Z,17.07
2019-02-16T17:35:27.890Z,15.67
2019-02-16T17:38:34.577Z,15.73
2019-02-16T17:41:28.359Z,13.47
2019-02-16T17:44:22.293Z,15.47
2019-02-16T17:47:16.358Z,17.33
2019-02-16T17:50:04.420Z,19.00
2019-02-16T17:52:51.301Z,20.53
2019-02-16T17:55:26.958Z,23.43
2019-02-16T17:58:30.193Z,25.70
2019-02-16T18:01:17.143Z,23.27
2019-02-16T18:04:04.084Z,25.77
2019-02-16T18:06:51.094Z,21.83
2019-02-16T18:09:48.973Z,21.43
2019-02-16T18:12:39.475Z,18.20
2019-02-16T18:15:18.625Z,15.83
2019-02-16T18:18:12.985Z,16.03
2019-02-16T18:21:03.851Z,18.30
2019-02-16T18:23:43.404Z,17.20
2019-02-16T18:26:30.026Z,21.03
2019-02-16T18:29:19.170Z,16.37
2019-02-16T18:32:05.920Z,17.23
2019-02-16T18:34:56.881Z,18.17
2019-02-16T18:37:54.081Z,16.13
2019-02-16T18:40:33.187Z,18.43
2019-02-16T18:43:30.411Z,15.23
2019-02-16T18:46:33.703Z,14.43
2019-02-16T18:49:13.748Z,15.70
2019-02-16T18:52:04.879Z,15.30
2019-02-16T18:54:59.056Z,15.57
2019-02-16T18:57:55.749Z,13.63
2019-02-16T19:00:39.398Z,18.33
2019-02-16T19:03:25.170Z,16.70
2019-02-16T19:06:12.715Z,22.97
2019-02-16T19:08:59.340Z,26.23
2019-02-16T19:11:54.599Z,17.50
2019-02-16T19:14:57.614Z,16.43
2019-02-16T19:17:32.738Z,14.57
2019-02-16T19:20:23.712Z,17.43
2019-02-16T19:23:10.515Z,15.90
2019-02-16T19:25:46.647Z,13.57
2019-02-16T19:28:31.626Z,15.20
2019-02-16T19:31:28.642Z,16.13
2019-02-16T19:34:28.706Z,17.83
2019-02-16T19:37:22.826Z,15.70
2019-02-16T19:40:16.615Z,16.57
2019-02-16T19:43:04.605Z,14.03
2019-02-16T19:46:10.785Z,15.30
2019-02-16T19:49:05.166Z,13.33
2019-02-16T19:51:44.688Z,14.53
2019-02-16T19:54:24.648Z,13.43
2019-02-16T19:57:11.499Z,14.87
2019-02-16T19:59:58.462Z,17.50
2019-02-16T20:02:37.418Z,14.97
2019-02-16T20:05:14.783Z,16.67
2019-02-16T20:07:49.220Z,18.17
2019-02-16T20:10:40.329Z,20.07
2019-02-16T20:13:32.577Z,18.10
2019-02-16T20:16:13.481Z,19.10
2019-02-16T20:18:51.947Z,23.70
2019-02-16T20:21:46.008Z,16.53
2019-02-16T20:24:49.055Z,17.30
2019-02-16T20:27:36.975Z,24.40
2019-02-16T20:30:17.635Z,18.03
2019-02-16T20:33:08.566Z,16.97
2019-02-16T20:35:50.174Z,21.90
2019-02-16T20:38:47.454Z,20.73
2019-02-16T20:41:35.374Z,21.13
2019-02-16T20:44:32.386Z,21.67
2019-02-16T20:47:18.971Z,20.20
2019-02-16T20:50:08.317Z,22.03
2019-02-16T20:52:51.667Z,19.47
2019-02-16T20:55:51.855Z,21.37
2019-02-16T20:58:49.251Z,21.43
2019-02-16T21:01:24.435Z,21.27
2019-02-16T21:04:19.614Z,18.50
2019-02-16T21:07:00.168Z,21.57
2019-02-16T21:09:46.156Z,22.07
2019-02-16T21:12:40.610Z,22.73
2019-02-16T21:15:31.550Z,21.73
2019-02-16T21:18:28.712Z,17.63
2019-02-16T21:21:08.302Z,19.60
2019-02-16T21:24:08.720Z,19.67
2019-02-16T21:26:47.429Z,20.47
2019-02-16T21:29:44.755Z,21.43
2019-02-16T21:32:45.133Z,21.97
2019-02-16T21:35:31.949Z,21.13
2019-02-16T21:38:16.541Z,20.40
2019-02-16T21:41:03.326Z,19.90
2019-02-16T21:43:43.273Z,22.53
2019-02-16T21:46:40.172Z,23.60
2019-02-16T21:49:31.076Z,20.03
2019-02-16T21:52:18.961Z,19.00
2019-02-16T21:54:56.918Z,21.23
2019-02-16T21:57:37.004Z,24.70
2019-02-16T22:00:43.220Z,22.87
2019-02-16T22:03:49.360Z,20.90
2019-02-16T22:06:39.928Z,25.57
2019-02-16T22:09:30.615Z,22.67
2019-02-16T22:12:11.775Z,20.83
2019-02-16T22:14:40.647Z,21.57
2019-02-16T22:17:09.647Z,19.13
2019-02-16T22:19:38.691Z,18.87
2019-02-16T22:22:07.654Z,23.17
2019-02-16T22:24:36.615Z,21.23
2019-02-16T22:27:06.974Z,16.53
2019-02-16T22:29:35.999Z,17.57
2019-02-16T22:32:04.876Z,19.73
2019-02-16T22:34:33.853Z,19.23
2019-02-16T22:37:02.724Z,20.83
2019-02-16T22:39:31.616Z,22.67
2019-02-16T22:42:00.496Z,21.97
2019-02-16T22:44:29.418Z,20.23
2019-02-16T22:46:58.420Z,19.13
2019-02-16T22:49:27.411Z,18.93
2019-02-16T22:51:56.385Z,21.23
2019-02-16T22:54:25.372Z,20.23
2019-02-16T22:56:54.317Z,18.50
2019-02-16T22:59:23.311Z,21.93
2019-02-16T23:01:52.179Z,22.50
2019-02-16T23:04:21.265Z,24.83
2019-02-16T23:06:50.083Z,23.30
2019-02-16T23:09:29.699Z,22.13
2019-02-16T23:11:58.577Z,22.47
2019-02-16T23:14:27.549Z,22.17
2019-02-16T23:16:56.441Z,21.07
2019-02-16T23:19:25.509Z,23.83
2019-02-16T23:21:54.462Z,22.93
2019-02-16T23:24:23.366Z,22.43
2019-02-16T23:26:52.288Z,22.00
2019-02-16T23:29:21.304Z,20.70
2019-02-16T23:31:50.414Z,23.00
2019-02-16T23:34:19.408Z,23.97
2019-02-16T23:36:48.487Z,21.30
2019-02-16T23:39:17.369Z,23.40
2019-02-16T23:41:46.278Z,22.60
2019-02-16T23:44:15.252Z,19.47
2019-02-16T23:46:44.240Z,22.23
2019-02-16T23:49:13.233Z,24.23
2019-02-16T23:51:42.222Z,23.67
2019-02-16T23:54:11.211Z,26.23
2019-02-16T23:56:40.220Z,21.87
2019-02-16T23:59:09.151Z,21.27
